Latest Weather Observations for Evans Head

IDN60801

Issued at 8:03 am EST Tuesday 26 September 2017 (issued every 30 minutes, with the page automatically refreshed every 10 minutes)

About weather observations | Map of weather stations | Latest weather observations for NSW | Other Formats
Station Details ID: 058212 Name: EVANS HEAD RAAF BOMBING RANGE AWS Lat: -29.18 Lon: 153.40 Height: 62.5 m
Data from the previous 72 hours. | See also: Recent months at Evans Head
Date/Time
EST
Temp
°C
App
Temp
°C
Dew
Point
°C
Rel
Hum
%
Delta-T
°C
Wind Press
QNH
hPa
Press
MSL
hPa
Rain since
9am
mm
Dir  Spd
km/h
Gust
km/h
Spd
kts
Gust
kts
26/08:00am 21.8 21.5 18.2 80 2.2 S 17 22 9 12 1014.8 1014.6 0.0
26/07:30am 21.2 21.0 17.6 80 2.2 S 15 22 8 12 1014.6 1014.4 0.0
26/07:00am 21.0 20.7 17.4 80 2.2 S 15 22 8 12 1014.2 1014.0 0.0
26/06:30am 19.9 19.1 16.2 79 2.2 S 15 19 8 10 1013.3 1013.1 0.0
26/06:00am 19.8 19.4 16.1 79 2.2 S 13 17 7 9 1013.1 1013.0 0.0
26/05:30am 19.8 16.3 10.2 54 5.2 S 19 24 10 13 1012.8 1012.7 0.0
26/05:00am 22.9 19.7 5.3 32 8.8 SW 11 15 6 8 1012.1 1012.0 0.0
26/04:30am 23.1 20.2 6.4 34 8.6 SW 11 13 6 7 1011.4 1011.3 0.0
26/04:00am 22.8 20.1 10.3 45 6.9 SW 15 17 8 9 1011.4 1011.3 0.0
26/03:30am 22.4 19.6 11.2 49 6.2 WSW 17 19 9 10 1011.3 1011.2 0.0
26/03:00am 22.3 20.0 11.7 51 6.0 WSW 15 19 8 10 1011.0 1010.9 0.0
26/02:30am 22.2 21.1 11.9 52 5.8 SW 9 13 5 7 1010.8 1010.7 0.0
26/02:00am 22.1 20.3 12.1 53 5.7 SW 13 17 7 9 1011.1 1011.0 0.0
26/01:30am 22.5 21.5 12.2 52 5.8 S 9 13 5 7 1010.5 1010.4 0.0
26/01:00am 22.6 21.5 12.0 51 6.0 S 9 11 5 6 1011.1 1011.0 0.0
26/12:30am 23.0 22.4 12.3 51 6.1 E 7 9 4 5 1011.4 1011.3 0.0
26/12:00am 23.8 22.3 13.1 51 6.2 ESE 13 17 7 9 1011.4 1011.3 0.0
 
Date/Time
EST
Temp
°C
App
Temp
°C
Dew
Point
°C
Rel
Hum
%
Delta-T
°C
Wind Press
QNH
hPa
Press
MSL
hPa
Rain since
9am
mm
Dir  Spd
km/h
Gust
km/h
Spd
kts
Gust
kts
25/11:30pm 23.6 22.3 13.8 54 5.7 ESE 13 17 7 9 1011.4 1011.3 0.0
25/11:00pm 23.3 22.1 14.0 56 5.5 SSE 13 17 7 9 1011.3 1011.2 0.0
25/10:30pm 24.0 22.4 13.8 53 6.0 SSE 15 19 8 10 1011.0 1010.9 0.0
25/10:00pm 24.4 22.5 11.7 45 7.2 S 13 19 7 10 1010.9 1010.8 0.0
25/09:30pm 27.3 23.9 9.2 32 10.0 SW 17 22 9 12 1010.6 1010.5 0.0
25/09:00pm 26.8 24.4 10.1 35 9.3 SSW 13 17 7 9 1010.1 1010.0 0.0
25/08:30pm 27.8 26.2 8.6 30 10.5 W 7 11 4 6 1009.7 1009.6 0.0
25/08:00pm 24.6 24.9 16.1 59 5.2 N 9 13 5 7 1009.0 1008.9 0.0
25/07:48pm 25.7 26.4 14.5 50 6.7 N 4 11 2 6 1008.8 1008.7 0.0
25/07:30pm 30.8 28.6 6.0 21 13.2 WSW 7 9 4 5 1008.5 1008.4 0.0
25/07:00pm 31.1 28.4 5.5 20 13.6 W 9 15 5 8 1008.0 1007.9 0.0
25/06:30pm 30.5 27.8 5.7 21 13.1 NW 9 15 5 8 1007.6 1007.5 0.0
25/06:00pm 31.3 27.5 5.7 20 13.6 NW 15 20 8 11 1007.2 1007.0 0.0
25/05:30pm 30.9 27.3 6.7 22 13.0 NW 15 22 8 12 1006.7 1006.5 0.0
25/05:00pm 31.6 29.9 9.8 26 12.4 NNW 9 15 5 8 1006.3 1006.1 0.0
25/04:30pm 33.3 30.5 8.7 22 13.9 NNW 13 19 7 10 1006.0 1005.8 0.0
25/04:00pm 35.4 31.8 8.3 19 15.4 NNW 17 28 9 15 1005.7 1005.5 0.0
25/03:30pm 35.9 31.4 8.7 19 15.5 NNW 22 33 12 18 1005.5 1005.3 0.0
25/03:00pm 36.5 31.7 7.5 17 16.3 NNW 22 39 12 21 1005.5 1005.3 0.0
25/02:30pm 36.8 31.8 9.4 19 15.9 NNW 26 44 14 24 1005.8 1005.6 0.0
25/02:00pm 36.7 31.8 8.5 18 16.1 NNW 24 35 13 19 1005.9 1005.7 0.0
25/01:30pm 36.9 32.6 9.5 19 15.9 NNW 22 35 12 19 1006.2 1006.0 0.0
25/01:00pm 37.0 33.4 11.8 22 15.2 NNW 22 39 12 21 1006.6 1006.4 0.0
25/12:30pm 35.5 31.5 10.5 22 14.6 N 22 35 12 19 1007.1 1006.9 0.0
25/12:00pm 34.9 31.9 12.5 25 13.5 NNW 20 32 11 17 1007.9 1007.8 0.0
25/11:30am 32.3 29.8 13.5 32 11.4 NNW 19 28 10 15 1008.7 1008.6 0.0
25/11:00am 29.6 26.2 12.5 35 10.1 NNW 22 33 12 18 1009.0 1008.9 0.0
25/10:30am 28.4 25.8 13.9 41 8.7 NNW 20 32 11 17 1009.3 1009.2 0.0
25/10:00am 27.0 24.2 12.6 41 8.4 NNW 19 35 10 19 1009.4 1009.3 0.0
25/09:30am 28.0 25.2 13.1 39 8.8 NNW 20 30 11 16 1009.8 1009.7 0.0
25/09:00am 28.6 25.6 13.7 40 8.9 NNW 22 35 12 19 1009.3 1009.2 0.0
25/08:30am 26.6 24.6 15.6 50 6.7 NNW 20 35 11 19 1009.6 1009.5 0.0
25/08:00am 25.7 23.2 15.1 52 6.4 NNW 22 35 12 19 1009.6 1009.5 0.0
25/07:30am 25.5 22.6 15.2 53 6.2 NNW 24 33 13 18 1009.6 1009.5 0.0
25/07:00am 24.1 21.1 14.8 56 5.6 NNW 24 35 13 19 1009.4 1009.3 0.0
25/06:30am 23.0 20.0 14.8 60 4.9 NNW 24 39 13 21 1009.3 1009.2 0.0
25/06:00am 21.1 18.6 14.0 64 4.1 NNW 20 28 11 15 1008.6 1008.5 0.0
25/05:30am 21.7 18.4 14.1 62 4.4 NNW 24 37 13 20 1008.2 1008.1 0.0
25/05:00am 20.7 17.8 14.1 66 3.8 NNW 22 32 12 17 1007.8 1007.7 0.0
25/04:30am 21.4 19.0 13.8 62 4.4 NNW 19 30 10 16 1007.5 1007.4 0.0
25/04:00am 22.8 20.3 13.6 56 5.4 NNW 19 30 10 16 1007.7 1007.6 0.0
25/03:30am 21.3 19.0 14.2 64 4.1 NNW 19 28 10 15 1007.0 1006.8 0.0
25/03:00am 21.0 18.7 14.2 65 4.0 NNW 19 26 10 14 1006.7 1006.5 0.0
25/02:30am 22.4 19.9 13.5 57 5.2 NNW 19 28 10 15 1006.7 1006.5 0.0
25/02:00am 23.2 21.2 13.9 56 5.5 NW 17 24 9 13 1007.5 1007.4 0.0
25/01:30am 20.0 18.2 15.6 76 2.6 NNW 19 24 10 13 1007.0 1006.8 0.0
25/01:00am 19.5 19.0 15.8 79 2.2 NNW 13 20 7 11 1007.3 1007.1 0.0
25/12:30am 19.4 18.6 16.1 81 2.0 NNW 15 19 8 10 1007.7 1007.6 0.0
25/12:00am 19.2 18.0 16.1 82 1.9 NNW 17 20 9 11 1007.6 1007.5 0.0
 
Date/Time
EST
Temp
°C
App
Temp
°C
Dew
Point
°C
Rel
Hum
%
Delta-T
°C
Wind Press
QNH
hPa
Press
MSL
hPa
Rain since
9am
mm
Dir  Spd
km/h
Gust
km/h
Spd
kts
Gust
kts
24/11:30pm 19.4 18.6 16.2 82 1.9 N 15 22 8 12 1007.7 1007.6 0.0
24/11:00pm 19.5 18.3 16.2 81 2.0 NNW 17 22 9 12 1007.6 1007.5 0.0
24/10:30pm 19.6 18.6 16.6 83 1.8 N 17 22 9 12 1007.7 1007.6 0.0
24/10:00pm 19.5 18.5 16.5 83 1.8 NNW 17 20 9 11 1007.7 1007.6 0.0
24/09:30pm 20.4 19.1 17.2 82 2.0 N 20 28 11 15 1007.7 1007.6 0.0
24/09:00pm 20.8 19.5 17.2 80 2.2 N 20 32 11 17 1007.2 1007.0 0.0
24/08:30pm 21.3 19.3 17.5 79 2.3 N 24 33 13 18 1007.1 1006.9 0.0
24/08:00pm 21.7 19.7 17.5 77 2.6 N 24 35 13 19 1007.0 1006.8 0.0
24/07:30pm 22.3 20.4 16.8 71 3.4 N 22 32 12 17 1006.8 1006.6 0.0
24/07:00pm 22.5 21.1 17.0 71 3.4 N 20 28 11 15 1006.5 1006.3 0.0
24/06:30pm 22.9 21.7 17.4 71 3.4 N 20 28 11 15 1006.1 1005.9 0.0
24/06:00pm 23.2 22.0 17.4 70 3.6 N 20 30 11 16 1005.7 1005.5 0.0
24/05:30pm 24.0 22.5 17.7 68 3.9 N 22 35 12 19 1005.5 1005.3 0.0
24/05:00pm 25.2 23.8 17.9 64 4.6 N 22 32 12 17 1005.3 1005.1 0.0
24/04:30pm 25.9 23.3 17.8 61 5.1 N 28 39 15 21 1005.0 1004.8 0.0
24/04:00pm 27.0 23.6 17.8 57 5.8 N 32 46 17 25 1004.7 1004.5 0.0
24/03:30pm 28.0 25.8 17.8 54 6.5 N 26 41 14 22 1004.8 1004.6 0.0
24/03:00pm 29.5 28.0 17.7 49 7.5 NNE 22 30 12 16 1004.9 1004.7 0.0
24/02:30pm 29.0 27.3 18.1 51 7.0 NNE 24 35 13 19 1005.1 1004.9 0.0
24/02:00pm 29.5 27.6 17.7 49 7.5 NNE 24 41 13 22 1005.5 1005.3 0.0
24/01:30pm 30.1 27.5 17.9 48 7.8 N 28 41 15 22 1005.8 1005.6 0.0
24/01:00pm 30.1 27.6 17.2 46 8.2 NNE 26 39 14 21 1006.5 1006.3 0.0
24/12:30pm 30.4 28.8 17.5 46 8.2 NNE 22 35 12 19 1007.1 1006.9 0.0
24/12:00pm 31.1 29.4 16.3 41 9.3 NNE 20 30 11 16 1007.5 1007.4 0.0
24/11:30am 33.6 31.6 15.6 34 11.3 N 20 32 11 17 1007.9 1007.8 0.0
24/11:00am 35.4 30.8 12.4 25 13.9 NNW 28 46 15 25 1008.3 1008.2 0.0
24/10:53am 35.0 30.1 12.6 26 13.5 NNW 30 48 16 26 1008.4 1008.3 0.0
24/10:30am 34.0 29.2 11.8 26 13.2 NNW 28 43 15 23 1008.8 1008.7 0.0
24/10:00am 33.2 30.1 13.3 30 12.0 NNW 22 35 12 19 1009.4 1009.3 0.0
24/09:30am 31.3 28.5 14.4 35 10.3 NNW 22 39 12 21 1009.8 1009.7 0.0
24/09:00am 29.7 27.7 15.0 40 9.0 NNW 19 30 10 16 1010.3 1010.2 0.0
24/08:30am 28.5 26.8 14.7 43 8.4 NNW 17 30 9 16 1010.5 1010.4 0.0
24/08:00am 27.0 25.9 14.4 46 7.6 NNW 13 30 7 16 1010.7 1010.6 0.0
24/07:30am 25.3 22.7 13.8 49 6.8 NNW 20 30 11 16 1010.3 1010.2 0.0
24/07:00am 22.5 22.7 14.6 61 4.7 NNW 7 17 4 9 1010.2 1010.1 0.0
24/06:30am 20.5 21.1 14.2 67 3.7 WSW 4 11 2 6 1009.9 1009.8 0.0
24/06:00am 19.6 18.2 13.5 68 3.5 NNW 13 19 7 10 1009.4 1009.3 0.0
24/05:30am 20.8 18.2 13.7 64 4.1 NNW 20 30 11 16 1009.2 1009.1 0.0
24/05:00am 20.3 17.3 13.7 66 3.8 NNW 22 35 12 19 1008.8 1008.7 0.0
24/04:30am 20.8 18.1 14.5 67 3.7 NNW 22 33 12 18 1008.7 1008.6 0.0
24/04:00am 17.8 16.7 14.3 80 2.0 NNW 13 19 7 10 1008.8 1008.7 0.0
24/03:30am 18.0 17.8 14.7 81 1.9 N 9 15 5 8 1008.9 1008.8 0.0
24/03:00am 17.8 16.3 15.2 85 1.5 NNW 17 20 9 11 1008.6 1008.5 0.0
24/02:30am 16.9 16.1 15.1 89 1.0 N 13 15 7 8 1008.8 1008.7 0.0
24/02:00am 16.9 16.1 15.2 90 1.0 NNE 13 19 7 10 1009.2 1009.1 0.0
24/01:30am 17.4 16.8 15.7 90 1.0 NNE 13 17 7 9 1009.6 1009.5 0.0
24/01:00am 17.7 17.6 15.9 89 1.1 NNE 11 13 6 7 1009.9 1009.8 0.0
24/12:30am 17.8 18.1 16.0 89 1.1 N 9 13 5 7 1010.1 1010.0 0.0
24/12:00am 18.2 17.9 16.4 89 1.1 NNE 13 15 7 8 1010.3 1010.2 0.0
 
Date/Time
EST
Temp
°C
App
Temp
°C
Dew
Point
°C
Rel
Hum
%
Delta-T
°C
Wind Press
QNH
hPa
Press
MSL
hPa
Rain since
9am
mm
Dir  Spd
km/h
Gust
km/h
Spd
kts
Gust
kts
23/11:30pm 18.2 18.1 16.0 87 1.3 N 11 15 6 8 1010.5 1010.4 0.0
23/11:00pm 18.7 18.3 16.1 85 1.6 N 13 19 7 10 1010.3 1010.2 0.0
23/10:30pm 18.9 18.2 16.3 85 1.6 N 15 20 8 11 1010.5 1010.4 0.0
23/10:00pm 19.3 18.6 16.5 84 1.7 N 15 20 8 11 1010.7 1010.6 0.0
23/09:30pm 19.7 18.7 16.7 83 1.8 N 17 24 9 13 1010.8 1010.7 0.0
23/09:00pm 20.3 19.0 17.3 83 1.8 N 20 32 11 17 1010.8 1010.7 0.0
23/08:30pm 20.3 18.8 17.7 85 1.6 N 22 30 12 16 1010.9 1010.8 0.0
23/08:00pm 20.4 19.5 17.8 85 1.6 N 19 24 10 13 1010.8 1010.7 0.0
23/07:30pm 20.8 19.7 17.8 83 1.9 N 20 28 11 15 1010.5 1010.4 0.0
23/07:00pm 21.1 20.3 17.9 82 2.0 N 19 26 10 14 1010.2 1010.1 0.0
23/06:30pm 21.7 20.9 17.9 79 2.4 N 19 22 10 12 1009.9 1009.8 0.0
23/06:00pm 22.5 21.7 18.1 76 2.8 N 19 26 10 14 1009.8 1009.7 0.0
23/05:30pm 23.1 21.8 18.2 74 3.1 N 22 35 12 19 1009.6 1009.5 0.0
23/05:00pm 23.9 22.9 17.9 69 3.8 NNE 20 30 11 16 1009.5 1009.4 0.0
23/04:30pm 24.8 23.3 17.8 65 4.4 NNE 22 33 12 18 1009.4 1009.3 0.0
23/04:00pm 27.0 25.5 17.8 57 5.8 NNE 22 33 12 18 1009.3 1009.2 0.0
23/03:30pm 28.1 26.9 17.6 53 6.6 N 20 33 11 18 1009.4 1009.3 0.0
23/03:00pm 29.3 28.1 17.5 49 7.5 NNE 20 30 11 16 1009.5 1009.4 0.0
23/02:30pm 29.9 27.7 16.0 43 8.6 NNE 22 32 12 17 1009.6 1009.5 0.0
23/02:00pm 30.8 29.3 15.2 38 9.6 NNE 17 28 9 15 1010.2 1010.1 0.0
23/01:30pm 29.5 27.6 15.2 41 8.8 NNE 19 30 10 16 1010.6 1010.5 0.0
23/01:00pm 29.5 27.7 14.5 40 9.1 NE 17 28 9 15 1011.0 1010.9 0.0
23/12:30pm 29.4 27.7 14.8 41 8.9 NNE 17 26 9 14 1011.4 1011.3 0.0
23/12:00pm 31.1 30.4 15.5 39 9.7 NNE 13 22 7 12 1011.8 1011.7 0.0
23/11:30am 32.9 31.1 14.5 33 11.3 N 17 22 9 12 1012.3 1012.2 0.0
23/11:00am 31.7 30.1 13.9 34 10.8 NNW 15 26 8 14 1013.0 1012.9 0.0
23/10:30am 30.4 28.6 13.2 35 10.3 NNW 15 26 8 14 1013.5 1013.3 0.0
23/10:00am 29.3 27.3 13.9 39 9.3 NNW 17 30 9 16 1014.0 1013.8 0.0
23/09:30am 28.2 26.4 14.4 42 8.3 NNW 17 26 9 14 1014.3 1014.1 0.0
23/09:00am 26.7 24.8 14.1 46 7.5 NNW 17 28 9 15 1014.6 1014.4 3.0
23/08:30am 25.1 23.4 13.6 49 6.8 N 15 24 8 13 1014.7 1014.5 3.0

Other Formats:

Comma delimited format used in spreadsheet applications
http://www.bom.gov.au/fwo/IDN60801/IDN60801.94598.axf

JavaScript Object Notation format (JSON) in row-major order
http://www.bom.gov.au/fwo/IDN60801/IDN60801.94598.json